.
WxDataArchive / Data Records for 2015-02-15
2015-02-14 February 2015 2015-02-16

Data Records for Sunday, 15 February 2015

Time	Temp	Chill	HIndex	Humid	Dewpt	 Wind 	HiWind	WindDir	Rain 	Barom
-----	----	-----	------	-----	-----	------	------	-------	-----	-----
00:00	6.5	6.5	6.5	51	-7.7	1	4	270	0.00	30.366 
00:05	6.3	6.3	6.3	52	-7.5	1	4	338	0.00	30.366 
00:10	6.3	6.3	6.3	52	-7.5	2	7	315	0.00	30.366 
00:15	6.3	6.3	6.3	52	-7.5	1	4	315	0.00	30.372 
00:20	6.1	6.1	6.1	53	-7.3	1	9	338	0.00	30.372 
00:25	6.1	6.1	6.1	53	-7.3	1	5	338	0.00	30.372 
00:30	6.1	6.1	6.1	53	-7.3	2	5	270	0.00	30.370 
00:35	6.0	6.0	6.0	53	-7.4	1	4	270	0.00	30.370 
00:40	6.0	6.0	6.0	53	-7.4	1	4	270	0.00	30.370 
00:45	5.8	5.8	5.8	54	-7.2	1	3	270	0.00	30.380 
00:50	5.8	5.8	5.8	54	-7.2	0	3	270	0.00	30.380 
00:55	5.6	5.6	5.6	54	-7.4	0	3	270	0.00	30.380 
01:00	5.6	5.6	5.6	54	-7.4	0	2	270	0.00	30.382 
01:05	5.4	5.4	5.4	55	-7.2	0	2	270	0.00	30.382 
01:10	5.2	5.2	5.2	56	-7.0	0	1	270	0.00	30.382 
01:15	5.0	5.0	5.0	56	-7.2	0	1	270	0.00	30.383 
01:20	5.0	5.0	5.0	57	-6.9	0	1	270	0.00	30.383 
01:25	4.8	4.8	4.8	57	-7.0	0	1	270	0.00	30.383 
01:30	4.7	4.7	4.7	58	-6.8	0	1	270	0.00	30.385 
01:35	4.5	4.5	4.5	58	-7.0	0	1	270	0.00	30.385 
01:40	4.5	4.5	4.5	59	-6.6	0	1	270	0.00	30.385 
01:45	4.3	4.3	4.3	60	-6.5	0	1	270	0.00	30.391 
01:50	4.3	4.3	4.3	60	-6.5	0	1	270	0.00	30.391 
01:55	4.1	4.1	4.1	61	-6.3	0	1	270	0.00	30.391 
02:00	4.1	4.1	4.1	61	-6.3	0	1	270	0.00	30.397 
02:05	4.1	4.1	4.1	62	-6.0	0	1	270	0.00	30.397 
02:10	3.9	3.9	3.9	62	-6.2	0	0	---	0.00	30.397 
02:15	3.9	3.9	3.9	62	-6.2	0	1	270	0.00	30.404 
02:20	3.9	3.9	3.9	62	-6.2	0	1	270	0.00	30.404 
02:25	3.7	3.7	3.7	63	-6.0	0	1	270	0.00	30.404 
02:30	3.7	3.7	3.7	63	-6.0	0	1	270	0.00	30.411 
02:35	3.7	3.7	3.7	63	-6.0	0	1	270	0.00	30.411 
02:40	3.5	3.5	3.5	63	-6.2	0	1	270	0.00	30.411 
02:45	3.5	3.5	3.5	63	-6.2	0	1	270	0.00	30.418 
02:50	3.5	3.5	3.5	63	-6.2	0	3	270	0.00	30.418 
02:55	3.5	3.5	3.5	63	-6.2	0	2	270	0.00	30.418 
03:00	3.5	3.5	3.5	63	-6.2	0	1	270	0.00	30.418 
03:05	3.4	3.4	3.4	63	-6.3	0	1	270	0.00	30.418 
03:10	3.4	3.4	3.4	63	-6.3	0	2	270	0.00	30.418 
03:15	3.2	3.2	3.2	62	-6.8	0	1	270	0.00	30.423 
03:20	3.2	3.2	3.2	62	-6.8	0	2	270	0.00	30.423 
03:25	3.2	3.2	3.2	62	-6.8	0	2	270	0.00	30.423 
03:30	3.2	3.2	3.2	62	-6.8	0	1	270	0.00	30.436 
03:35	3.2	3.2	3.2	62	-6.8	0	1	270	0.00	30.436 
03:40	3.0	3.0	3.0	62	-7.0	0	1	270	0.00	30.436 
03:45	3.0	3.0	3.0	62	-7.0	0	1	270	0.00	30.448 
03:50	3.0	3.0	3.0	62	-7.0	0	1	270	0.00	30.448 
03:55	2.8	2.8	2.8	62	-7.2	0	2	270	0.00	30.448 
04:00	2.8	2.8	2.8	62	-7.2	0	1	270	0.00	30.449 
04:05	2.8	2.8	2.8	62	-7.2	0	2	270	0.00	30.449 
04:10	2.8	2.8	2.8	62	-7.2	0	2	270	0.00	30.449 
04:15	2.6	2.6	2.6	62	-7.4	0	3	270	0.00	30.452 
04:20	2.6	2.6	2.6	61	-7.7	0	2	270	0.00	30.452 
04:25	2.6	2.6	2.6	61	-7.7	0	2	270	0.00	30.452 
04:30	2.4	2.4	2.4	61	-7.9	0	1	270	0.00	30.460 
04:35	2.2	2.2	2.2	61	-8.1	0	1	270	0.00	30.460 
04:40	2.2	2.2	2.2	60	-8.5	0	3	270	0.00	30.460 
04:45	2.2	2.2	2.2	60	-8.5	0	1	270	0.00	30.464 
04:50	2.0	2.0	2.0	60	-8.6	0	1	270	0.00	30.464 
04:55	1.8	1.8	1.8	60	-8.8	0	0	---	0.00	30.464 
05:00	1.7	1.7	1.7	60	-8.9	0	1	270	0.00	30.471 
05:05	1.7	1.7	1.7	61	-8.6	0	1	270	0.00	30.471 
05:10	1.5	1.5	1.5	61	-8.8	0	0	---	0.00	30.471 
05:15	1.5	1.5	1.5	61	-8.8	0	0	---	0.00	30.475 
05:20	1.5	1.5	1.5	61	-8.8	0	1	270	0.00	30.475 
05:25	1.3	1.3	1.3	61	-9.0	0	2	270	0.00	30.475 
05:30	1.3	1.3	1.3	61	-9.0	0	1	270	0.00	30.488 
05:35	1.3	1.3	1.3	61	-9.0	0	2	270	0.00	30.488 
05:40	1.3	1.3	1.3	61	-9.0	0	1	270	0.00	30.488 
05:45	1.1	1.1	1.1	61	-9.2	0	0	---	0.00	30.500 
05:50	1.1	1.1	1.1	61	-9.2	0	1	270	0.00	30.500 
05:55	1.1	1.1	1.1	60	-9.5	0	3	270	0.00	30.500 
06:00	1.1	1.1	1.1	60	-9.5	0	2	270	0.00	30.508 
06:05	1.1	1.1	1.1	59	-9.8	1	3	270	0.00	30.508 
06:10	1.1	1.1	1.1	57	-10.5	1	4	270	0.00	30.508 
06:15	0.9	0.9	0.9	57	-10.7	0	2	270	0.00	30.516 
06:20	0.9	0.9	0.9	56	-11.1	1	5	292	0.00	30.516 
06:25	0.9	0.9	0.9	55	-11.4	1	5	270	0.00	30.516 
06:30	0.7	0.7	0.7	54	-12.0	0	2	270	0.00	30.522 
06:35	0.5	0.5	0.5	54	-12.2	0	4	270	0.00	30.522 
06:40	0.5	0.5	0.5	53	-12.6	1	2	0	0.00	30.522 
06:45	0.5	0.5	0.5	52	-12.9	1	3	0	0.00	30.526 
06:50	0.3	0.3	0.3	52	-13.1	1	4	338	0.00	30.526 
06:55	0.3	0.3	0.3	51	-13.5	1	3	292	0.00	30.526 
07:00	0.1	0.1	0.1	51	-13.7	1	3	292	0.00	30.536 
07:05	0.1	0.1	0.1	51	-13.7	0	2	270	0.00	30.536 
07:10	0.0	0.0	0.0	52	-13.4	0	1	270	0.00	30.536 
07:15	-0.2	-0.2	-0.2	52	-13.6	0	3	270	0.00	30.536 
07:20	-0.2	-0.2	-0.2	52	-13.6	1	3	270	0.00	30.536 
07:25	-0.4	-0.4	-0.4	52	-13.8	0	3	315	0.00	30.536 
07:30	-0.4	-0.4	-0.4	52	-13.8	0	2	315	0.00	30.543 
07:35	-0.6	-0.6	-0.6	52	-14.0	0	1	315	0.00	30.543 
07:40	-0.6	-0.6	-0.6	52	-14.0	0	2	315	0.00	30.543 
07:45	-0.8	-0.8	-0.8	52	-14.1	0	2	315	0.00	30.548 
07:50	-0.8	-0.8	-0.8	52	-14.1	0	2	315	0.00	30.548 
07:55	-1.0	-1.0	-1.0	53	-14.0	0	2	315	0.00	30.548 
08:00	-1.0	-1.0	-1.0	53	-14.0	0	1	315	0.00	30.551 
08:05	-1.0	-1.0	-1.0	52	-14.3	0	5	315	0.00	30.551 
08:10	-1.0	-1.0	-1.0	52	-14.3	0	3	315	0.00	30.551 
08:15	-0.8	-0.8	-0.8	52	-14.1	1	3	315	0.00	30.556 
08:20	-0.8	-0.8	-0.8	51	-14.5	0	2	315	0.00	30.556 
08:25	-0.6	-0.6	-0.6	50	-14.7	1	6	315	0.00	30.556 
08:30	-0.4	-0.4	-0.4	50	-14.5	0	3	338	0.00	30.563 
08:35	-0.4	-0.4	-0.4	49	-14.9	1	4	338	0.00	30.563 
08:40	-0.2	-0.2	-0.2	49	-14.8	0	2	338	0.00	30.563 
08:45	0.0	0.0	0.0	48	-15.0	1	4	338	0.00	30.568 
08:50	0.0	0.0	0.0	47	-15.4	1	4	0	0.00	30.568 
08:55	0.1	0.1	0.1	47	-15.3	0	2	22	0.00	30.568 
09:00	0.1	0.1	0.1	47	-15.3	1	4	45	0.00	30.570 
09:05	0.3	0.3	0.3	46	-15.5	0	3	338	0.00	30.570 
09:10	0.3	0.3	0.3	46	-15.5	0	2	45	0.00	30.570 
09:15	0.7	0.7	0.7	46	-15.2	0	4	22	0.00	30.569 
09:20	0.5	0.5	0.5	44	-16.2	2	5	338	0.00	30.569 
09:25	0.5	0.5	0.5	44	-16.2	1	4	338	0.00	30.569 
09:30	0.7	0.7	0.7	44	-16.0	1	3	338	0.00	30.571 
09:35	1.3	1.3	1.3	45	-15.0	1	5	22	0.00	30.571 
09:40	1.7	1.7	1.7	43	-15.6	1	5	112	0.00	30.571 
09:45	1.7	1.7	1.7	43	-15.6	1	4	45	0.00	30.573 
09:50	1.8	1.8	1.8	42	-15.9	2	5	45	0.00	30.573 
09:55	1.8	1.8	1.8	43	-15.5	1	4	45	0.00	30.573 
10:00	1.8	1.8	1.8	42	-15.9	1	3	315	0.00	30.582 
10:05	2.2	2.2	2.2	43	-15.1	1	5	315	0.00	30.582 
10:10	2.0	2.0	2.0	42	-15.8	1	3	45	0.00	30.582 
10:15	1.5	1.5	1.5	42	-16.2	1	4	315	0.00	30.582 
10:20	1.7	1.7	1.7	43	-15.6	1	4	338	0.00	30.582 
10:25	2.0	2.0	2.0	43	-15.3	1	2	338	0.00	30.582 
10:30	2.0	2.0	2.0	44	-14.8	1	3	338	0.00	30.588 
10:35	2.4	2.4	2.4	44	-14.5	0	3	338	0.00	30.588 
10:40	3.0	3.0	3.0	44	-13.9	0	3	90	0.00	30.588 
10:45	3.0	3.0	3.0	43	-14.4	0	3	45	0.00	30.589 
10:50	3.0	3.0	3.0	42	-14.8	1	5	68	0.00	30.589 
10:55	3.0	3.0	3.0	40	-15.8	1	2	68	0.00	30.589 
11:00	2.6	2.6	2.6	40	-16.2	2	4	315	0.00	30.586 
11:05	2.8	2.8	2.8	41	-15.5	0	3	315	0.00	30.586 
11:10	3.2	3.2	3.2	39	-16.1	1	4	270	0.00	30.586 
11:15	3.2	3.2	3.2	40	-15.6	1	3	315	0.00	30.583 
11:20	3.5	3.5	3.5	41	-14.9	1	4	90	0.00	30.583 
11:25	3.7	3.7	3.7	40	-15.2	1	4	68	0.00	30.583 
11:30	3.5	3.5	3.5	40	-15.3	2	7	112	0.00	30.590 
11:35	3.4	3.4	3.4	39	-15.9	1	5	45	0.00	30.590 
11:40	3.2	3.2	3.2	39	-16.1	1	4	45	0.00	30.590 
11:45	3.4	3.4	3.4	40	-15.4	1	3	45	0.00	30.590 
11:50	3.4	3.4	3.4	39	-15.9	1	5	45	0.00	30.590 
11:55	3.4	3.4	3.4	39	-15.9	1	5	45	0.00	30.590 
12:00	3.4	3.4	3.4	39	-15.9	1	5	45	0.00	30.590 
12:05	3.4	3.4	3.4	39	-15.9	1	6	0	0.00	30.590 
12:10	3.4	3.4	3.4	38	-16.4	1	3	68	0.00	30.590 
12:15	3.4	3.4	3.4	37	-17.0	1	6	68	0.00	30.601 
12:20	3.4	3.4	3.4	39	-15.9	1	3	112	0.00	30.601 
12:25	3.4	3.4	3.4	39	-15.9	0	3	45	0.00	30.601 
12:30	3.5	3.5	3.5	38	-16.3	1	3	45	0.00	30.599 
12:35	3.5	3.5	3.5	39	-15.8	1	3	68	0.00	30.599 
12:40	3.4	3.4	3.4	39	-15.9	1	5	112	0.00	30.599 
12:45	3.4	3.4	3.4	39	-15.9	1	5	45	0.00	30.600 
12:50	3.4	3.4	3.4	40	-15.4	1	5	90	0.00	30.600 
12:55	3.0	3.0	3.0	38	-16.8	0	3	90	0.00	30.600 
13:00	3.2	3.2	3.2	39	-16.1	1	3	90	0.00	30.598 
13:05	3.4	3.4	3.4	37	-17.0	0	2	68	0.00	30.598 
13:10	3.4	3.4	3.4	38	-16.4	0	4	68	0.00	30.598 
13:15	3.4	3.4	3.4	38	-16.4	0	1	68	0.00	30.586 
13:20	3.2	3.2	3.2	36	-17.7	2	6	112	0.00	30.586 
13:25	3.2	3.2	3.2	38	-16.6	1	3	112	0.00	30.586 
13:30	3.2	3.2	3.2	38	-16.6	1	4	68	0.00	30.578 
13:35	3.7	3.7	3.7	40	-15.2	0	3	45	0.00	30.578 
13:40	4.1	4.1	4.1	39	-15.3	1	2	45	0.00	30.578 
13:45	4.3	4.3	4.3	39	-15.1	0	2	45	0.00	30.572 
13:50	4.3	4.3	4.3	36	-16.7	1	5	90	0.00	30.572 
13:55	4.1	4.1	4.1	39	-15.3	1	4	90	0.00	30.572 
14:00	4.5	4.5	4.5	38	-15.4	0	2	90	0.00	30.562 
14:05	4.5	4.5	4.5	38	-15.4	1	5	90	0.00	30.562 
14:10	4.7	4.7	4.7	37	-15.8	1	2	90	0.00	30.562 
14:15	4.5	4.5	4.5	36	-16.5	0	2	90	0.00	30.567 
14:20	4.7	4.7	4.7	36	-16.3	0	3	90	0.00	30.567 
14:25	4.8	4.8	4.8	37	-15.7	1	2	68	0.00	30.567 
14:30	5.0	5.0	5.0	36	-16.0	0	2	45	0.00	30.567 
14:35	5.0	5.0	5.0	37	-15.5	1	4	112	0.00	30.567 
14:40	5.2	5.2	5.2	38	-14.8	1	4	68	0.00	30.567 
14:45	5.0	5.0	5.0	38	-15.0	2	5	112	0.00	30.554 
14:50	5.2	5.2	5.2	39	-14.3	0	3	90	0.00	30.554 
14:55	5.2	5.2	5.2	36	-15.9	0	3	0	0.00	30.554 
15:00	5.2	5.2	5.2	36	-15.9	0	2	0	0.00	30.544 
15:05	5.0	5.0	5.0	36	-16.0	0	1	0	0.00	30.544 
15:10	5.2	5.2	5.2	38	-14.8	0	3	0	0.00	30.544 
15:15	5.2	5.2	5.2	38	-14.8	0	2	22	0.00	30.551 
15:20	5.2	5.2	5.2	39	-14.3	0	4	22	0.00	30.551 
15:25	5.4	5.4	5.4	38	-14.6	1	5	22	0.00	30.551 
15:30	5.4	5.4	5.4	39	-14.1	0	3	90	0.00	30.540 
15:35	5.6	5.6	5.6	39	-13.9	0	3	90	0.00	30.540 
15:40	5.4	5.4	5.4	38	-14.6	1	4	90	0.00	30.540 
15:45	5.2	5.2	5.2	38	-14.8	1	3	90	0.00	30.539 
15:50	5.2	5.2	5.2	40	-13.8	0	2	90	0.00	30.539 
15:55	5.4	5.4	5.4	39	-14.1	0	2	90	0.00	30.539 
16:00	5.6	5.6	5.6	39	-13.9	0	2	90	0.00	30.538 
16:05	5.6	5.6	5.6	40	-13.4	1	4	90	0.00	30.538 
16:10	5.4	5.4	5.4	39	-14.1	1	5	112	0.00	30.538 
16:15	5.4	5.4	5.4	40	-13.6	0	2	112	0.00	30.540 
16:20	5.6	5.6	5.6	39	-13.9	0	3	112	0.00	30.540 
16:25	5.6	5.6	5.6	40	-13.4	0	2	112	0.00	30.540 
16:30	5.6	5.6	5.6	39	-13.9	1	4	112	0.00	30.536 
16:35	5.6	5.6	5.6	39	-13.9	1	5	68	0.00	30.536 
16:40	5.6	5.6	5.6	39	-13.9	0	3	68	0.00	30.536 
16:45	5.6	5.6	5.6	38	-14.4	0	2	90	0.00	30.536 
16:50	5.4	5.4	5.4	38	-14.6	2	5	90	0.00	30.536 
16:55	5.2	5.2	5.2	39	-14.3	1	3	90	0.00	30.536 
17:00	5.2	5.2	5.2	40	-13.8	1	3	90	0.00	30.533 
17:05	5.0	5.0	5.0	41	-13.5	1	2	90	0.00	30.533 
17:10	5.0	5.0	5.0	40	-14.0	1	5	112	0.00	30.533 
17:15	4.8	4.8	4.8	40	-14.2	2	5	112	0.00	30.530 
17:20	4.5	4.5	4.5	40	-14.4	2	5	68	0.00	30.530 
17:25	4.3	4.3	4.3	41	-14.1	1	4	68	0.00	30.530 
17:30	4.3	4.3	4.3	41	-14.1	1	4	68	0.00	30.535 
17:35	4.3	4.3	4.3	41	-14.1	1	3	68	0.00	30.535 
17:40	4.1	4.1	4.1	41	-14.3	2	4	68	0.00	30.535 
17:45	3.9	3.9	3.9	42	-14.0	1	4	90	0.00	30.535 
17:50	3.9	3.9	3.9	42	-14.0	1	3	90	0.00	30.535 
17:55	3.9	3.9	3.9	43	-13.6	1	3	90	0.00	30.535 
18:00	3.7	3.7	3.7	43	-13.7	0	2	90	0.00	30.547 
18:05	3.5	3.5	3.5	42	-14.4	1	3	90	0.00	30.547 
18:10	3.5	3.5	3.5	43	-13.9	0	2	90	0.00	30.547 
18:15	3.4	3.4	3.4	43	-14.0	0	2	90	0.00	30.557 
18:20	3.4	3.4	3.4	43	-14.0	0	1	90	0.00	30.557 
18:25	3.4	3.4	3.4	43	-14.0	0	1	90	0.00	30.557 
18:30	3.2	3.2	3.2	43	-14.2	0	1	90	0.00	30.558 
18:35	3.2	3.2	3.2	43	-14.2	0	1	90	0.00	30.558 
18:40	3.2	3.2	3.2	44	-13.7	0	1	90	0.00	30.558 
18:45	3.0	3.0	3.0	45	-13.5	0	1	90	0.00	30.557 
18:50	3.0	3.0	3.0	43	-14.4	0	1	90	0.00	30.557 
18:55	3.0	3.0	3.0	43	-14.4	0	1	90	0.00	30.557 
19:00	3.0	3.0	3.0	44	-13.9	0	1	90	0.00	30.557 
19:05	3.0	3.0	3.0	45	-13.5	0	1	90	0.00	30.557 
19:10	2.8	2.8	2.8	46	-13.2	0	2	90	0.00	30.557 
19:15	2.8	2.8	2.8	46	-13.2	0	1	90	0.00	30.550 
19:20	2.8	2.8	2.8	46	-13.2	1	3	90	0.00	30.550 
19:25	2.8	2.8	2.8	46	-13.2	1	3	90	0.00	30.550 
19:30	2.6	2.6	2.6	46	-13.4	1	2	90	0.00	30.542 
19:35	2.6	2.6	2.6	46	-13.4	1	2	90	0.00	30.542 
19:40	2.4	2.4	2.4	46	-13.6	1	2	90	0.00	30.542 
19:45	2.4	2.4	2.4	47	-13.2	0	2	90	0.00	30.545 
19:50	2.4	2.4	2.4	47	-13.2	1	4	90	0.00	30.545 
19:55	2.4	2.4	2.4	47	-13.2	1	3	90	0.00	30.545 
20:00	2.4	2.4	2.4	47	-13.2	1	4	90	0.00	30.539 
20:05	2.6	2.6	2.6	47	-13.0	1	3	90	0.00	30.539 
20:10	2.6	2.6	2.6	48	-12.6	1	4	90	0.00	30.539 
20:15	2.6	2.6	2.6	47	-13.0	1	4	90	0.00	30.537 
20:20	2.6	2.6	2.6	47	-13.0	1	2	90	0.00	30.537 
20:25	2.6	2.6	2.6	47	-13.0	1	4	90	0.00	30.537 
20:30	2.6	2.6	2.6	48	-12.6	1	2	90	0.00	30.537 
20:35	2.6	2.6	2.6	48	-12.6	1	3	90	0.00	30.537 
20:40	2.6	2.6	2.6	48	-12.6	2	4	90	0.00	30.537 
20:45	2.6	2.6	2.6	48	-12.6	1	4	90	0.00	30.530 
20:50	2.6	2.6	2.6	47	-13.0	2	5	90	0.00	30.530 
20:55	2.6	2.6	2.6	47	-13.0	2	6	90	0.00	30.530 
21:00	2.6	2.6	2.6	48	-12.6	1	3	90	0.00	30.526 
21:05	2.6	2.6	2.6	48	-12.6	2	5	112	0.00	30.526 
21:10	2.6	2.6	2.6	48	-12.6	1	3	112	0.00	30.526 
21:15	2.6	2.6	2.6	49	-12.2	1	4	90	0.00	30.521 
21:20	2.6	2.6	2.6	49	-12.2	1	4	90	0.00	30.521 
21:25	2.6	2.6	2.6	49	-12.2	1	4	90	0.00	30.521 
21:30	2.6	2.6	2.6	50	-11.8	1	3	90	0.00	30.524 
21:35	2.6	2.6	2.6	49	-12.2	1	4	90	0.00	30.524 
21:40	2.4	2.4	2.4	47	-13.2	2	5	90	0.00	30.524 
21:45	2.4	2.4	2.4	47	-13.2	2	5	90	0.00	30.526 
21:50	2.4	2.4	2.4	47	-13.2	1	5	90	0.00	30.526 
21:55	2.4	2.4	2.4	47	-13.2	1	4	90	0.00	30.526 
22:00	2.4	2.4	2.4	46	-13.6	2	6	90	0.00	30.525 
22:05	2.2	2.2	2.2	47	-13.4	2	6	90	0.00	30.525 
22:10	2.2	2.2	2.2	47	-13.4	2	4	90	0.00	30.525 
22:15	2.0	2.0	2.0	48	-13.1	1	3	90	0.00	30.522 
22:20	2.0	2.0	2.0	49	-12.7	1	5	90	0.00	30.522 
22:25	1.8	1.8	1.8	49	-12.9	1	2	90	0.00	30.522 
22:30	1.7	1.7	1.7	50	-12.6	0	1	90	0.00	30.526 
22:35	1.7	1.7	1.7	50	-12.6	0	1	90	0.00	30.526 
22:40	1.5	1.5	1.5	51	-12.4	0	1	90	0.00	30.526 
22:45	1.5	1.5	1.5	52	-12.0	0	1	90	0.00	30.533 
22:50	1.5	1.5	1.5	52	-12.0	0	1	90	0.00	30.533 
22:55	1.3	1.3	1.3	53	-11.8	0	0	---	0.00	30.533 
23:00	1.3	1.3	1.3	53	-11.8	0	2	90	0.00	30.529 
23:05	1.3	1.3	1.3	53	-11.8	0	1	90	0.00	30.529 
23:10	1.3	1.3	1.3	53	-11.8	0	1	90	0.00	30.529 
23:15	1.3	1.3	1.3	53	-11.8	0	1	90	0.00	30.532 
23:20	1.5	1.5	1.5	53	-11.6	0	1	90	0.00	30.532 
23:25	1.5	1.5	1.5	53	-11.6	0	1	90	0.00	30.532 
23:30	1.5	1.5	1.5	53	-11.6	0	0	---	0.00	30.532 
23:35	1.5	1.5	1.5	53	-11.6	0	1	90	0.00	30.532 
23:40	1.5	1.5	1.5	52	-12.0	0	1	90	0.00	30.532 
23:45	1.3	1.3	1.3	52	-12.2	0	1	90	0.00	30.524 
23:50	1.5	1.5	1.5	52	-12.0	0	1	90	0.00	30.524 
23:55	1.5	1.5	1.5	52	-12.0	0	2	90	0.00	30.524 

CoCoRaHS
IN-AL-39
A2 Web Hosting
Creative Commons License
GoDaddy
search engine by freefind advanced

loaded 2018-11-17 12:02:55 • last modified 2010-11-18 10:43:29
Privacy PolicyDisclaimer
• wx.awcolley.com is powered by PmWiki v.2002016 •
• all content (unless otherwise noted) © 2018 A W Colley